sensor_id;sensor_type;location;lat;lon;timestamp;P1;durP1;ratioP1;P2;durP2;ratioP2
9138;SDS011;4604;48.616;9.548;2023-03-01T00:00:39;24.23;;;11.97;;
9138;SDS011;4604;48.616;9.548;2023-03-01T00:03:08;25.30;;;12.03;;
9138;SDS011;4604;48.616;9.548;2023-03-01T00:05:34;22.87;;;11.73;;
9138;SDS011;4604;48.616;9.548;2023-03-01T00:08:01;22.93;;;11.47;;
9138;SDS011;4604;48.616;9.548;2023-03-01T00:10:28;21.43;;;10.63;;
9138;SDS011;4604;48.616;9.548;2023-03-01T00:12:54;18.83;;;10.13;;
9138;SDS011;4604;48.616;9.548;2023-03-01T00:15:21;22.83;;;9.37;;
9138;SDS011;4604;48.616;9.548;2023-03-01T00:17:48;21.37;;;10.33;;
9138;SDS011;4604;48.616;9.548;2023-03-01T00:20:16;18.47;;;9.87;;
9138;SDS011;4604;48.616;9.548;2023-03-01T00:22:43;15.97;;;9.30;;
9138;SDS011;4604;48.616;9.548;2023-03-01T00:25:09;20.40;;;10.43;;
9138;SDS011;4604;48.616;9.548;2023-03-01T00:27:36;19.03;;;11.00;;
9138;SDS011;4604;48.616;9.548;2023-03-01T00:30:03;21.73;;;10.50;;
9138;SDS011;4604;48.616;9.548;2023-03-01T00:32:30;20.57;;;11.27;;
9138;SDS011;4604;48.616;9.548;2023-03-01T00:34:57;18.70;;;10.73;;
9138;SDS011;4604;48.616;9.548;2023-03-01T00:37:25;20.27;;;10.53;;
9138;SDS011;4604;48.616;9.548;2023-03-01T00:39:52;19.03;;;10.70;;
9138;SDS011;4604;48.616;9.548;2023-03-01T00:42:18;20.20;;;10.17;;
9138;SDS011;4604;48.616;9.548;2023-03-01T00:44:47;19.37;;;9.73;;
9138;SDS011;4604;48.616;9.548;2023-03-01T00:47:13;18.97;;;9.43;;
9138;SDS011;4604;48.616;9.548;2023-03-01T00:49:40;17.97;;;9.17;;
9138;SDS011;4604;48.616;9.548;2023-03-01T00:52:07;19.67;;;9.53;;
9138;SDS011;4604;48.616;9.548;2023-03-01T00:54:35;23.70;;;9.93;;
9138;SDS011;4604;48.616;9.548;2023-03-01T00:57:02;17.73;;;9.87;;
9138;SDS011;4604;48.616;9.548;2023-03-01T00:59:28;20.07;;;9.90;;
9138;SDS011;4604;48.616;9.548;2023-03-01T01:01:55;20.70;;;9.60;;
9138;SDS011;4604;48.616;9.548;2023-03-01T01:04:22;20.70;;;10.43;;
9138;SDS011;4604;48.616;9.548;2023-03-01T01:06:48;20.27;;;10.23;;
9138;SDS011;4604;48.616;9.548;2023-03-01T01:09:16;22.90;;;10.83;;
9138;SDS011;4604;48.616;9.548;2023-03-01T01:11:45;23.23;;;10.03;;
9138;SDS011;4604;48.616;9.548;2023-03-01T01:14:13;17.77;;;9.67;;
9138;SDS011;4604;48.616;9.548;2023-03-01T01:16:39;20.10;;;10.23;;
9138;SDS011;4604;48.616;9.548;2023-03-01T01:19:09;21.30;;;11.00;;
9138;SDS011;4604;48.616;9.548;2023-03-01T01:21:36;20.77;;;11.43;;
9138;SDS011;4604;48.616;9.548;2023-03-01T01:24:04;24.33;;;12.23;;
9138;SDS011;4604;48.616;9.548;2023-03-01T01:26:32;27.40;;;11.67;;
9138;SDS011;4604;48.616;9.548;2023-03-01T01:29:01;23.73;;;11.27;;
9138;SDS011;4604;48.616;9.548;2023-03-01T01:31:30;22.07;;;11.57;;
9138;SDS011;4604;48.616;9.548;2023-03-01T01:33:58;23.47;;;11.57;;
9138;SDS011;4604;48.616;9.548;2023-03-01T01:36:25;19.53;;;10.90;;
9138;SDS011;4604;48.616;9.548;2023-03-01T01:38:52;21.77;;;10.67;;
9138;SDS011;4604;48.616;9.548;2023-03-01T01:41:20;19.63;;;10.43;;
9138;SDS011;4604;48.616;9.548;2023-03-01T01:43:48;22.70;;;11.23;;
9138;SDS011;4604;48.616;9.548;2023-03-01T01:46:37;19.23;;;9.87;;
9138;SDS011;4604;48.616;9.548;2023-03-01T01:49:07;20.47;;;10.57;;
9138;SDS011;4604;48.616;9.548;2023-03-01T01:51:42;20.77;;;10.10;;
9138;SDS011;4604;48.616;9.548;2023-03-01T01:54:14;21.23;;;10.77;;
9138;SDS011;4604;48.616;9.548;2023-03-01T01:56:46;20.97;;;11.10;;
9138;SDS011;4604;48.616;9.548;2023-03-01T01:59:17;26.57;;;11.90;;
9138;SDS011;4604;48.616;9.548;2023-03-01T02:01:45;22.60;;;11.73;;
9138;SDS011;4604;48.616;9.548;2023-03-01T02:04:12;23.17;;;11.73;;
9138;SDS011;4604;48.616;9.548;2023-03-01T02:06:39;20.17;;;11.23;;
9138;SDS011;4604;48.616;9.548;2023-03-01T02:09:15;21.07;;;10.97;;
9138;SDS011;4604;48.616;9.548;2023-03-01T02:11:44;21.30;;;10.93;;
9138;SDS011;4604;48.616;9.548;2023-03-01T02:14:11;24.03;;;11.73;;
9138;SDS011;4604;48.616;9.548;2023-03-01T02:16:38;19.87;;;11.43;;
9138;SDS011;4604;48.616;9.548;2023-03-01T02:19:06;24.73;;;12.47;;
9138;SDS011;4604;48.616;9.548;2023-03-01T02:21:37;21.20;;;11.77;;
9138;SDS011;4604;48.616;9.548;2023-03-01T02:24:14;23.70;;;11.73;;
9138;SDS011;4604;48.616;9.548;2023-03-01T02:26:53;22.50;;;12.00;;
9138;SDS011;4604;48.616;9.548;2023-03-01T02:29:23;23.17;;;11.33;;
9138;SDS011;4604;48.616;9.548;2023-03-01T02:31:51;19.90;;;10.67;;
9138;SDS011;4604;48.616;9.548;2023-03-01T02:34:22;19.33;;;10.43;;
9138;SDS011;4604;48.616;9.548;2023-03-01T02:36:52;19.90;;;10.70;;
9138;SDS011;4604;48.616;9.548;2023-03-01T02:39:24;24.10;;;12.60;;
9138;SDS011;4604;48.616;9.548;2023-03-01T02:41:53;20.37;;;11.07;;
9138;SDS011;4604;48.616;9.548;2023-03-01T02:44:20;21.10;;;10.97;;
9138;SDS011;4604;48.616;9.548;2023-03-01T02:46:50;22.70;;;11.50;;
9138;SDS011;4604;48.616;9.548;2023-03-01T02:49:23;20.33;;;10.97;;
9138;SDS011;4604;48.616;9.548;2023-03-01T02:55:00;18.30;;;10.97;;
9138;SDS011;4604;48.616;9.548;2023-03-01T02:57:30;23.53;;;11.77;;
9138;SDS011;4604;48.616;9.548;2023-03-01T03:00:00;23.97;;;11.43;;
9138;SDS011;4604;48.616;9.548;2023-03-01T03:02:34;25.03;;;11.87;;
9138;SDS011;4604;48.616;9.548;2023-03-01T03:05:05;22.27;;;11.10;;
9138;SDS011;4604;48.616;9.548;2023-03-01T03:07:34;25.10;;;11.17;;
9138;SDS011;4604;48.616;9.548;2023-03-01T03:10:02;19.40;;;11.47;;
9138;SDS011;4604;48.616;9.548;2023-03-01T03:12:30;21.40;;;11.20;;
9138;SDS011;4604;48.616;9.548;2023-03-01T03:14:56;26.80;;;12.77;;
9138;SDS011;4604;48.616;9.548;2023-03-01T03:17:23;23.87;;;12.17;;
9138;SDS011;4604;48.616;9.548;2023-03-01T03:19:51;26.37;;;12.00;;
9138;SDS011;4604;48.616;9.548;2023-03-01T03:22:18;25.90;;;11.93;;
9138;SDS011;4604;48.616;9.548;2023-03-01T03:24:44;21.33;;;12.20;;
9138;SDS011;4604;48.616;9.548;2023-03-01T03:27:11;24.70;;;12.17;;
9138;SDS011;4604;48.616;9.548;2023-03-01T03:29:38;20.73;;;11.57;;
9138;SDS011;4604;48.616;9.548;2023-03-01T03:32:04;23.63;;;11.70;;
9138;SDS011;4604;48.616;9.548;2023-03-01T03:34:32;23.90;;;12.10;;
9138;SDS011;4604;48.616;9.548;2023-03-01T03:37:00;24.33;;;13.67;;
9138;SDS011;4604;48.616;9.548;2023-03-01T03:39:27;22.53;;;11.73;;
9138;SDS011;4604;48.616;9.548;2023-03-01T03:41:59;24.63;;;12.37;;
9138;SDS011;4604;48.616;9.548;2023-03-01T03:44:26;22.97;;;12.10;;
9138;SDS011;4604;48.616;9.548;2023-03-01T03:46:53;25.90;;;12.60;;
9138;SDS011;4604;48.616;9.548;2023-03-01T03:49:20;22.00;;;12.90;;
9138;SDS011;4604;48.616;9.548;2023-03-01T03:51:46;23.33;;;12.77;;
9138;SDS011;4604;48.616;9.548;2023-03-01T03:54:14;25.67;;;12.70;;
9138;SDS011;4604;48.616;9.548;2023-03-01T03:56:42;23.10;;;12.73;;
9138;SDS011;4604;48.616;9.548;2023-03-01T03:59:09;22.23;;;11.70;;
9138;SDS011;4604;48.616;9.548;2023-03-01T04:01:36;27.20;;;12.50;;
9138;SDS011;4604;48.616;9.548;2023-03-01T04:04:03;19.90;;;11.20;;
9138;SDS011;4604;48.616;9.548;2023-03-01T04:06:30;25.67;;;12.83;;
9138;SDS011;4604;48.616;9.548;2023-03-01T04:08:57;22.50;;;11.53;;
9138;SDS011;4604;48.616;9.548;2023-03-01T04:11:27;23.70;;;12.17;;
9138;SDS011;4604;48.616;9.548;2023-03-01T04:13:54;22.83;;;11.40;;
9138;SDS011;4604;48.616;9.548;2023-03-01T04:16:22;23.30;;;11.87;;
9138;SDS011;4604;48.616;9.548;2023-03-01T04:18:50;20.87;;;11.57;;
9138;SDS011;4604;48.616;9.548;2023-03-01T04:21:18;23.30;;;12.30;;
9138;SDS011;4604;48.616;9.548;2023-03-01T04:23:45;23.47;;;12.23;;
9138;SDS011;4604;48.616;9.548;2023-03-01T04:26:12;23.53;;;12.87;;
9138;SDS011;4604;48.616;9.548;2023-03-01T04:28:40;31.97;;;13.90;;
9138;SDS011;4604;48.616;9.548;2023-03-01T04:31:11;22.23;;;11.70;;
9138;SDS011;4604;48.616;9.548;2023-03-01T04:33:42;21.57;;;12.03;;
9138;SDS011;4604;48.616;9.548;2023-03-01T04:36:11;23.57;;;12.07;;
9138;SDS011;4604;48.616;9.548;2023-03-01T04:38:39;25.97;;;11.77;;
9138;SDS011;4604;48.616;9.548;2023-03-01T04:41:06;25.27;;;13.00;;
9138;SDS011;4604;48.616;9.548;2023-03-01T04:43:34;22.40;;;12.43;;
9138;SDS011;4604;48.616;9.548;2023-03-01T04:46:04;24.50;;;12.60;;
9138;SDS011;4604;48.616;9.548;2023-03-01T04:48:33;26.43;;;12.93;;
9138;SDS011;4604;48.616;9.548;2023-03-01T04:51:01;28.10;;;13.70;;
9138;SDS011;4604;48.616;9.548;2023-03-01T04:53:28;25.70;;;13.07;;
9138;SDS011;4604;48.616;9.548;2023-03-01T04:55:55;22.77;;;12.70;;
9138;SDS011;4604;48.616;9.548;2023-03-01T04:58:23;25.83;;;12.87;;
9138;SDS011;4604;48.616;9.548;2023-03-01T05:00:50;21.03;;;11.57;;
9138;SDS011;4604;48.616;9.548;2023-03-01T05:03:19;25.20;;;12.70;;
9138;SDS011;4604;48.616;9.548;2023-03-01T05:05:47;27.80;;;13.43;;
9138;SDS011;4604;48.616;9.548;2023-03-01T05:08:15;28.70;;;13.50;;
9138;SDS011;4604;48.616;9.548;2023-03-01T05:10:43;24.97;;;13.40;;
9138;SDS011;4604;48.616;9.548;2023-03-01T05:13:12;25.03;;;13.27;;
9138;SDS011;4604;48.616;9.548;2023-03-01T05:15:40;25.23;;;12.80;;
9138;SDS011;4604;48.616;9.548;2023-03-01T05:18:07;26.37;;;13.07;;
9138;SDS011;4604;48.616;9.548;2023-03-01T05:20:37;24.80;;;13.70;;
9138;SDS011;4604;48.616;9.548;2023-03-01T05:23:04;23.37;;;12.47;;
9138;SDS011;4604;48.616;9.548;2023-03-01T05:25:32;25.73;;;13.10;;
9138;SDS011;4604;48.616;9.548;2023-03-01T05:28:05;26.13;;;12.57;;
9138;SDS011;4604;48.616;9.548;2023-03-01T05:30:34;27.63;;;12.93;;
9138;SDS011;4604;48.616;9.548;2023-03-01T05:33:01;24.80;;;12.50;;
9138;SDS011;4604;48.616;9.548;2023-03-01T05:35:28;27.93;;;12.63;;
9138;SDS011;4604;48.616;9.548;2023-03-01T05:37:59;27.17;;;13.27;;
9138;SDS011;4604;48.616;9.548;2023-03-01T05:40:25;23.73;;;13.43;;
9138;SDS011;4604;48.616;9.548;2023-03-01T05:42:52;23.80;;;12.53;;
9138;SDS011;4604;48.616;9.548;2023-03-01T05:45:20;23.30;;;12.50;;
9138;SDS011;4604;48.616;9.548;2023-03-01T05:47:47;26.80;;;13.10;;
9138;SDS011;4604;48.616;9.548;2023-03-01T05:50:15;23.87;;;13.13;;
9138;SDS011;4604;48.616;9.548;2023-03-01T05:52:45;25.47;;;13.10;;
9138;SDS011;4604;48.616;9.548;2023-03-01T05:55:14;25.13;;;13.20;;
9138;SDS011;4604;48.616;9.548;2023-03-01T05:57:42;23.63;;;12.50;;
9138;SDS011;4604;48.616;9.548;2023-03-01T06:00:10;24.73;;;13.07;;
9138;SDS011;4604;48.616;9.548;2023-03-01T06:02:38;28.50;;;16.07;;
9138;SDS011;4604;48.616;9.548;2023-03-01T06:05:05;27.10;;;14.47;;
9138;SDS011;4604;48.616;9.548;2023-03-01T06:07:33;26.37;;;13.73;;
9138;SDS011;4604;48.616;9.548;2023-03-01T06:10:00;25.10;;;13.13;;
9138;SDS011;4604;48.616;9.548;2023-03-01T06:12:31;27.23;;;13.37;;
9138;SDS011;4604;48.616;9.548;2023-03-01T06:14:57;25.87;;;12.77;;
9138;SDS011;4604;48.616;9.548;2023-03-01T06:17:24;24.90;;;12.47;;
9138;SDS011;4604;48.616;9.548;2023-03-01T06:19:51;23.53;;;12.70;;
9138;SDS011;4604;48.616;9.548;2023-03-01T06:22:18;21.53;;;12.60;;
9138;SDS011;4604;48.616;9.548;2023-03-01T06:24:44;27.60;;;12.73;;
9138;SDS011;4604;48.616;9.548;2023-03-01T06:27:11;23.37;;;12.23;;
9138;SDS011;4604;48.616;9.548;2023-03-01T06:29:39;29.00;;;12.33;;
9138;SDS011;4604;48.616;9.548;2023-03-01T06:32:06;23.03;;;12.73;;
9138;SDS011;4604;48.616;9.548;2023-03-01T06:34:33;22.87;;;12.77;;
9138;SDS011;4604;48.616;9.548;2023-03-01T06:37:00;26.57;;;13.03;;
9138;SDS011;4604;48.616;9.548;2023-03-01T06:39:30;24.67;;;13.33;;
9138;SDS011;4604;48.616;9.548;2023-03-01T06:41:57;24.27;;;13.37;;
9138;SDS011;4604;48.616;9.548;2023-03-01T06:44:23;26.83;;;12.63;;
9138;SDS011;4604;48.616;9.548;2023-03-01T06:46:51;23.50;;;12.47;;
9138;SDS011;4604;48.616;9.548;2023-03-01T06:49:18;21.17;;;12.90;;
9138;SDS011;4604;48.616;9.548;2023-03-01T06:51:45;26.13;;;13.87;;
9138;SDS011;4604;48.616;9.548;2023-03-01T06:54:12;24.63;;;13.20;;
9138;SDS011;4604;48.616;9.548;2023-03-01T06:56:39;26.93;;;13.80;;
9138;SDS011;4604;48.616;9.548;2023-03-01T06:59:05;29.13;;;13.43;;
9138;SDS011;4604;48.616;9.548;2023-03-01T07:01:32;23.83;;;12.73;;
9138;SDS011;4604;48.616;9.548;2023-03-01T07:04:00;27.60;;;13.40;;
9138;SDS011;4604;48.616;9.548;2023-03-01T07:06:27;26.03;;;13.27;;
9138;SDS011;4604;48.616;9.548;2023-03-01T07:08:53;26.20;;;13.07;;
9138;SDS011;4604;48.616;9.548;2023-03-01T07:11:20;25.23;;;12.63;;
9138;SDS011;4604;48.616;9.548;2023-03-01T07:13:47;24.97;;;12.67;;
9138;SDS011;4604;48.616;9.548;2023-03-01T07:16:14;29.80;;;13.47;;
9138;SDS011;4604;48.616;9.548;2023-03-01T07:18:41;24.90;;;13.80;;
9138;SDS011;4604;48.616;9.548;2023-03-01T07:21:11;27.20;;;13.57;;
9138;SDS011;4604;48.616;9.548;2023-03-01T07:23:40;24.30;;;13.13;;
9138;SDS011;4604;48.616;9.548;2023-03-01T07:26:07;27.97;;;13.63;;
9138;SDS011;4604;48.616;9.548;2023-03-01T07:28:33;25.53;;;12.50;;
9138;SDS011;4604;48.616;9.548;2023-03-01T07:31:03;26.10;;;13.03;;
9138;SDS011;4604;48.616;9.548;2023-03-01T07:33:31;29.10;;;13.97;;
9138;SDS011;4604;48.616;9.548;2023-03-01T07:35:59;22.50;;;13.07;;
9138;SDS011;4604;48.616;9.548;2023-03-01T07:38:28;23.03;;;12.47;;
9138;SDS011;4604;48.616;9.548;2023-03-01T07:40:57;23.60;;;12.73;;
9138;SDS011;4604;48.616;9.548;2023-03-01T07:43:25;25.53;;;13.10;;
9138;SDS011;4604;48.616;9.548;2023-03-01T07:45:52;28.37;;;14.63;;
9138;SDS011;4604;48.616;9.548;2023-03-01T07:48:18;22.80;;;13.00;;
9138;SDS011;4604;48.616;9.548;2023-03-01T07:50:45;34.07;;;15.17;;
9138;SDS011;4604;48.616;9.548;2023-03-01T07:53:12;26.93;;;13.57;;
9138;SDS011;4604;48.616;9.548;2023-03-01T07:55:40;27.10;;;13.33;;
9138;SDS011;4604;48.616;9.548;2023-03-01T07:58:07;28.53;;;13.73;;
9138;SDS011;4604;48.616;9.548;2023-03-01T08:00:33;28.50;;;13.30;;
9138;SDS011;4604;48.616;9.548;2023-03-01T08:03:00;26.17;;;13.53;;
9138;SDS011;4604;48.616;9.548;2023-03-01T08:05:28;25.30;;;13.33;;
9138;SDS011;4604;48.616;9.548;2023-03-01T08:07:55;29.67;;;14.47;;
9138;SDS011;4604;48.616;9.548;2023-03-01T08:10:21;25.17;;;13.67;;
9138;SDS011;4604;48.616;9.548;2023-03-01T08:12:51;27.07;;;14.10;;
9138;SDS011;4604;48.616;9.548;2023-03-01T08:15:18;30.53;;;14.13;;
9138;SDS011;4604;48.616;9.548;2023-03-01T08:17:45;25.57;;;13.97;;
9138;SDS011;4604;48.616;9.548;2023-03-01T08:20:15;29.83;;;14.03;;
9138;SDS011;4604;48.616;9.548;2023-03-01T08:22:42;24.47;;;14.23;;
9138;SDS011;4604;48.616;9.548;2023-03-01T08:25:08;24.77;;;13.40;;
9138;SDS011;4604;48.616;9.548;2023-03-01T08:27:35;27.10;;;13.27;;
9138;SDS011;4604;48.616;9.548;2023-03-01T08:30:03;24.87;;;13.03;;
9138;SDS011;4604;48.616;9.548;2023-03-01T08:32:34;27.93;;;13.60;;
9138;SDS011;4604;48.616;9.548;2023-03-01T08:35:02;24.83;;;13.87;;
9138;SDS011;4604;48.616;9.548;2023-03-01T08:37:29;24.13;;;13.50;;
9138;SDS011;4604;48.616;9.548;2023-03-01T08:39:58;27.30;;;14.37;;
9138;SDS011;4604;48.616;9.548;2023-03-01T08:42:25;24.80;;;12.67;;
9138;SDS011;4604;48.616;9.548;2023-03-01T08:44:51;26.63;;;14.63;;
9138;SDS011;4604;48.616;9.548;2023-03-01T08:47:19;29.73;;;13.50;;
9138;SDS011;4604;48.616;9.548;2023-03-01T08:49:46;29.23;;;13.83;;
9138;SDS011;4604;48.616;9.548;2023-03-01T08:52:13;24.80;;;13.23;;
9138;SDS011;4604;48.616;9.548;2023-03-01T08:54:39;30.80;;;13.30;;
9138;SDS011;4604;48.616;9.548;2023-03-01T08:57:06;29.83;;;14.10;;
9138;SDS011;4604;48.616;9.548;2023-03-01T08:59:34;23.47;;;13.20;;
9138;SDS011;4604;48.616;9.548;2023-03-01T09:02:02;24.63;;;13.50;;
9138;SDS011;4604;48.616;9.548;2023-03-01T09:04:30;25.90;;;12.20;;
9138;SDS011;4604;48.616;9.548;2023-03-01T09:06:58;28.23;;;14.10;;
9138;SDS011;4604;48.616;9.548;2023-03-01T09:09:25;23.40;;;13.13;;
9138;SDS011;4604;48.616;9.548;2023-03-01T09:11:51;28.63;;;13.90;;
9138;SDS011;4604;48.616;9.548;2023-03-01T09:14:18;23.97;;;13.10;;
9138;SDS011;4604;48.616;9.548;2023-03-01T09:16:45;25.27;;;12.53;;
9138;SDS011;4604;48.616;9.548;2023-03-01T09:19:11;24.87;;;12.77;;
9138;SDS011;4604;48.616;9.548;2023-03-01T09:21:40;19.97;;;11.50;;
9138;SDS011;4604;48.616;9.548;2023-03-01T09:24:17;29.33;;;12.30;;
9138;SDS011;4604;48.616;9.548;2023-03-01T09:26:45;24.43;;;12.33;;
9138;SDS011;4604;48.616;9.548;2023-03-01T09:29:12;24.17;;;13.10;;
9138;SDS011;4604;48.616;9.548;2023-03-01T09:31:40;24.80;;;13.33;;
9138;SDS011;4604;48.616;9.548;2023-03-01T09:34:07;26.20;;;12.90;;
9138;SDS011;4604;48.616;9.548;2023-03-01T09:36:35;22.50;;;12.47;;
9138;SDS011;4604;48.616;9.548;2023-03-01T09:39:03;25.13;;;13.47;;
9138;SDS011;4604;48.616;9.548;2023-03-01T09:44:36;23.43;;;11.83;;
9138;SDS011;4604;48.616;9.548;2023-03-01T09:47:09;20.63;;;11.77;;
9138;SDS011;4604;48.616;9.548;2023-03-01T09:49:42;25.30;;;11.17;;
9138;SDS011;4604;48.616;9.548;2023-03-01T09:52:17;24.20;;;12.90;;
9138;SDS011;4604;48.616;9.548;2023-03-01T09:54:52;20.87;;;11.20;;
9138;SDS011;4604;48.616;9.548;2023-03-01T09:57:25;26.20;;;13.50;;
9138;SDS011;4604;48.616;9.548;2023-03-01T09:59:59;21.47;;;11.97;;
9138;SDS011;4604;48.616;9.548;2023-03-01T10:02:37;23.33;;;11.90;;
9138;SDS011;4604;48.616;9.548;2023-03-01T10:05:14;22.07;;;12.03;;
9138;SDS011;4604;48.616;9.548;2023-03-01T10:07:53;21.53;;;11.83;;
9138;SDS011;4604;48.616;9.548;2023-03-01T10:10:31;18.80;;;11.27;;
9138;SDS011;4604;48.616;9.548;2023-03-01T10:13:01;23.70;;;11.53;;
9138;SDS011;4604;48.616;9.548;2023-03-01T10:15:38;20.20;;;11.57;;
9138;SDS011;4604;48.616;9.548;2023-03-01T10:18:09;21.87;;;12.43;;
9138;SDS011;4604;48.616;9.548;2023-03-01T10:20:42;19.17;;;11.33;;
9138;SDS011;4604;48.616;9.548;2023-03-01T10:23:13;17.83;;;10.97;;
9138;SDS011;4604;48.616;9.548;2023-03-01T10:25:47;23.23;;;12.03;;
9138;SDS011;4604;48.616;9.548;2023-03-01T10:28:25;22.67;;;12.43;;
9138;SDS011;4604;48.616;9.548;2023-03-01T10:30:56;22.30;;;12.83;;
9138;SDS011;4604;48.616;9.548;2023-03-01T10:33:25;23.47;;;11.70;;
9138;SDS011;4604;48.616;9.548;2023-03-01T10:35:55;22.07;;;12.40;;
9138;SDS011;4604;48.616;9.548;2023-03-01T10:38:22;20.40;;;11.50;;
9138;SDS011;4604;48.616;9.548;2023-03-01T10:40:54;23.67;;;11.67;;
9138;SDS011;4604;48.616;9.548;2023-03-01T10:43:23;20.80;;;11.50;;
9138;SDS011;4604;48.616;9.548;2023-03-01T10:45:51;20.63;;;11.77;;
9138;SDS011;4604;48.616;9.548;2023-03-01T10:48:19;20.43;;;11.20;;
9138;SDS011;4604;48.616;9.548;2023-03-01T10:50:50;19.77;;;11.20;;
9138;SDS011;4604;48.616;9.548;2023-03-01T10:53:31;24.20;;;12.43;;
9138;SDS011;4604;48.616;9.548;2023-03-01T10:56:01;20.60;;;11.90;;
9138;SDS011;4604;48.616;9.548;2023-03-01T10:58:31;20.67;;;11.07;;
9138;SDS011;4604;48.616;9.548;2023-03-01T11:00:59;19.13;;;11.47;;
9138;SDS011;4604;48.616;9.548;2023-03-01T11:03:28;22.73;;;11.57;;
9138;SDS011;4604;48.616;9.548;2023-03-01T11:06:00;20.10;;;10.80;;
9138;SDS011;4604;48.616;9.548;2023-03-01T11:11:24;17.80;;;10.23;;
9138;SDS011;4604;48.616;9.548;2023-03-01T11:13:57;19.70;;;10.97;;
9138;SDS011;4604;48.616;9.548;2023-03-01T11:16:27;21.00;;;11.30;;
9138;SDS011;4604;48.616;9.548;2023-03-01T11:18:58;18.20;;;11.07;;
9138;SDS011;4604;48.616;9.548;2023-03-01T11:21:26;18.83;;;10.73;;
9138;SDS011;4604;48.616;9.548;2023-03-01T11:23:57;20.47;;;10.43;;
9138;SDS011;4604;48.616;9.548;2023-03-01T11:26:28;20.73;;;11.50;;
9138;SDS011;4604;48.616;9.548;2023-03-01T11:28:58;17.47;;;10.27;;
9138;SDS011;4604;48.616;9.548;2023-03-01T11:31:30;23.83;;;11.30;;
9138;SDS011;4604;48.616;9.548;2023-03-01T11:33:59;21.10;;;11.80;;
9138;SDS011;4604;48.616;9.548;2023-03-01T11:36:38;21.23;;;11.43;;
9138;SDS011;4604;48.616;9.548;2023-03-01T11:39:15;19.40;;;11.60;;
9138;SDS011;4604;48.616;9.548;2023-03-01T11:41:52;18.83;;;11.10;;
9138;SDS011;4604;48.616;9.548;2023-03-01T11:44:28;20.07;;;11.37;;
9138;SDS011;4604;48.616;9.548;2023-03-01T11:47:05;20.40;;;11.67;;
9138;SDS011;4604;48.616;9.548;2023-03-01T11:50:03;19.63;;;11.60;;
9138;SDS011;4604;48.616;9.548;2023-03-01T11:52:42;19.73;;;11.33;;
9138;SDS011;4604;48.616;9.548;2023-03-01T11:55:21;22.30;;;11.93;;
9138;SDS011;4604;48.616;9.548;2023-03-01T11:58:04;18.47;;;10.73;;
9138;SDS011;4604;48.616;9.548;2023-03-01T12:00:56;19.77;;;10.53;;
9138;SDS011;4604;48.616;9.548;2023-03-01T12:03:33;18.33;;;10.60;;
9138;SDS011;4604;48.616;9.548;2023-03-01T12:06:31;21.17;;;10.80;;
9138;SDS011;4604;48.616;9.548;2023-03-01T12:09:15;18.40;;;10.50;;
9138;SDS011;4604;48.616;9.548;2023-03-01T12:11:53;21.03;;;11.57;;
9138;SDS011;4604;48.616;9.548;2023-03-01T12:17:37;21.87;;;11.40;;
9138;SDS011;4604;48.616;9.548;2023-03-01T12:20:17;19.23;;;10.50;;
9138;SDS011;4604;48.616;9.548;2023-03-01T12:22:54;21.40;;;11.30;;
9138;SDS011;4604;48.616;9.548;2023-03-01T12:25:38;17.63;;;10.57;;
9138;SDS011;4604;48.616;9.548;2023-03-01T12:28:19;20.73;;;11.10;;
9138;SDS011;4604;48.616;9.548;2023-03-01T12:31:32;19.03;;;11.07;;
9138;SDS011;4604;48.616;9.548;2023-03-01T12:34:22;19.13;;;11.10;;
9138;SDS011;4604;48.616;9.548;2023-03-01T12:37:17;20.83;;;11.10;;
9138;SDS011;4604;48.616;9.548;2023-03-01T12:39:51;22.90;;;11.43;;
9138;SDS011;4604;48.616;9.548;2023-03-01T12:42:30;16.63;;;9.73;;
9138;SDS011;4604;48.616;9.548;2023-03-01T12:45:25;18.93;;;10.43;;
9138;SDS011;4604;48.616;9.548;2023-03-01T12:48:09;18.80;;;10.37;;
9138;SDS011;4604;48.616;9.548;2023-03-01T12:50:59;18.57;;;10.10;;
9138;SDS011;4604;48.616;9.548;2023-03-01T12:53:28;16.80;;;10.13;;
9138;SDS011;4604;48.616;9.548;2023-03-01T12:55:59;19.47;;;9.80;;
9138;SDS011;4604;48.616;9.548;2023-03-01T12:58:29;19.40;;;9.73;;
9138;SDS011;4604;48.616;9.548;2023-03-01T13:01:04;18.10;;;9.73;;
9138;SDS011;4604;48.616;9.548;2023-03-01T13:03:56;21.03;;;10.87;;
9138;SDS011;4604;48.616;9.548;2023-03-01T13:06:40;21.93;;;11.93;;
9138;SDS011;4604;48.616;9.548;2023-03-01T13:09:16;20.13;;;12.03;;
9138;SDS011;4604;48.616;9.548;2023-03-01T13:11:51;20.73;;;11.70;;
9138;SDS011;4604;48.616;9.548;2023-03-01T13:20:11;19.50;;;11.17;;
9138;SDS011;4604;48.616;9.548;2023-03-01T13:22:39;22.33;;;10.97;;
9138;SDS011;4604;48.616;9.548;2023-03-01T13:25:13;19.57;;;11.43;;
9138;SDS011;4604;48.616;9.548;2023-03-01T13:27:42;19.53;;;10.60;;
9138;SDS011;4604;48.616;9.548;2023-03-01T13:36:07;17.20;;;10.53;;
9138;SDS011;4604;48.616;9.548;2023-03-01T13:38:36;17.97;;;10.57;;
9138;SDS011;4604;48.616;9.548;2023-03-01T13:41:05;18.00;;;9.70;;
9138;SDS011;4604;48.616;9.548;2023-03-01T13:43:32;22.90;;;10.83;;
9138;SDS011;4604;48.616;9.548;2023-03-01T13:46:02;15.97;;;10.13;;
9138;SDS011;4604;48.616;9.548;2023-03-01T13:48:36;18.47;;;10.43;;
9138;SDS011;4604;48.616;9.548;2023-03-01T13:51:07;21.03;;;12.07;;
9138;SDS011;4604;48.616;9.548;2023-03-01T13:53:39;17.63;;;11.43;;
9138;SDS011;4604;48.616;9.548;2023-03-01T13:56:09;18.93;;;10.47;;
9138;SDS011;4604;48.616;9.548;2023-03-01T13:58:49;17.63;;;10.30;;
9138;SDS011;4604;48.616;9.548;2023-03-01T14:01:22;17.03;;;10.50;;
9138;SDS011;4604;48.616;9.548;2023-03-01T14:03:51;21.07;;;10.97;;
9138;SDS011;4604;48.616;9.548;2023-03-01T14:06:21;15.63;;;10.30;;
9138;SDS011;4604;48.616;9.548;2023-03-01T14:08:49;20.37;;;11.37;;
9138;SDS011;4604;48.616;9.548;2023-03-01T14:14:32;19.03;;;10.90;;
9138;SDS011;4604;48.616;9.548;2023-03-01T14:17:12;21.33;;;12.27;;
9138;SDS011;4604;48.616;9.548;2023-03-01T14:19:54;23.27;;;11.77;;
9138;SDS011;4604;48.616;9.548;2023-03-01T14:22:24;26.73;;;12.73;;
9138;SDS011;4604;48.616;9.548;2023-03-01T14:24:54;19.87;;;11.43;;
9138;SDS011;4604;48.616;9.548;2023-03-01T14:27:23;22.27;;;11.73;;
9138;SDS011;4604;48.616;9.548;2023-03-01T14:29:55;20.13;;;10.67;;
9138;SDS011;4604;48.616;9.548;2023-03-01T14:32:25;19.73;;;11.37;;
9138;SDS011;4604;48.616;9.548;2023-03-01T14:34:53;20.37;;;11.53;;
9138;SDS011;4604;48.616;9.548;2023-03-01T14:37:21;19.37;;;10.50;;
9138;SDS011;4604;48.616;9.548;2023-03-01T14:39:51;23.77;;;12.27;;
9138;SDS011;4604;48.616;9.548;2023-03-01T14:42:18;22.83;;;11.67;;
9138;SDS011;4604;48.616;9.548;2023-03-01T14:44:48;23.23;;;12.47;;
9138;SDS011;4604;48.616;9.548;2023-03-01T14:47:23;20.30;;;11.77;;
9138;SDS011;4604;48.616;9.548;2023-03-01T14:49:54;19.57;;;11.80;;
9138;SDS011;4604;48.616;9.548;2023-03-01T14:52:28;21.77;;;11.87;;
9138;SDS011;4604;48.616;9.548;2023-03-01T14:55:01;23.83;;;12.57;;
9138;SDS011;4604;48.616;9.548;2023-03-01T14:57:31;17.87;;;10.67;;
9138;SDS011;4604;48.616;9.548;2023-03-01T14:59:59;22.17;;;12.90;;
9138;SDS011;4604;48.616;9.548;2023-03-01T15:02:30;21.00;;;12.00;;
9138;SDS011;4604;48.616;9.548;2023-03-01T15:04:58;24.03;;;11.60;;
9138;SDS011;4604;48.616;9.548;2023-03-01T15:07:31;19.73;;;11.70;;
9138;SDS011;4604;48.616;9.548;2023-03-01T15:10:02;20.10;;;11.83;;
9138;SDS011;4604;48.616;9.548;2023-03-01T15:12:38;21.57;;;12.17;;
9138;SDS011;4604;48.616;9.548;2023-03-01T15:15:23;22.53;;;11.47;;
9138;SDS011;4604;48.616;9.548;2023-03-01T15:17:58;21.83;;;11.40;;
9138;SDS011;4604;48.616;9.548;2023-03-01T15:20:27;23.00;;;11.40;;
9138;SDS011;4604;48.616;9.548;2023-03-01T15:22:58;18.00;;;10.73;;
9138;SDS011;4604;48.616;9.548;2023-03-01T15:25:27;18.90;;;11.53;;
9138;SDS011;4604;48.616;9.548;2023-03-01T15:27:56;22.40;;;11.60;;
9138;SDS011;4604;48.616;9.548;2023-03-01T15:30:25;19.87;;;10.67;;
9138;SDS011;4604;48.616;9.548;2023-03-01T15:35:45;21.20;;;11.93;;